KHGR/HGR METAR and TAF weather

Enter ICAO airport designator
Station Type Date Time Source
KHGR METAR 2024/05/28 22:53 UTC NOAA

KHGR 282253Z 30008KT 10SM FEW100 23/13 A2985 RMK AO2 RAB2157E05 SLP114 P0000 T02330128 $


Station Type Date Time Source
KHGR Decoded METAR 2024/05/28 22:53 UTC NOAA

HAGERSTOWN REGIONAL AIRPORT, MD, United States (KHGR) 39-42N 077-44W 224M
May 28, 2024 - 06:53 PM EDT / 2024.05.28 2253 UTC
Wind: from the WNW (300 degrees) at 9 MPH (8 KT):0
Visibility: 10 mile(s):0
Sky conditions: mostly clear
Precipitation last hour: A trace
Temperature: 73.9 F (23.3 C)
Dew Point: 55.0 F (12.8 C)
Relative Humidity: 51%
Pressure (altimeter): 29.85 in. Hg (1010 hPa)
ob: KHGR 282253Z 30008KT 10SM FEW100 23/13 A2985 RMK AO2 RAB2157E05 SLP114 P0000 T02330128
cycle: 23

Station Type Date Time Source
KHGR TAF UTC NOAA

Error!

Example: see airport list